sensor_id;sensor_type;location;lat;lon;timestamp;P1;durP1;ratioP1;P2;durP2;ratioP2
253;SDS011;590;48.772;8.846;2022-07-03T00:00:40;4.20;;;3.47;;
253;SDS011;590;48.772;8.846;2022-07-03T00:03:08;5.23;;;3.30;;
253;SDS011;590;48.772;8.846;2022-07-03T00:05:36;3.40;;;3.20;;
253;SDS011;590;48.772;8.846;2022-07-03T00:08:04;3.63;;;2.70;;
253;SDS011;590;48.772;8.846;2022-07-03T00:10:33;3.03;;;2.83;;
253;SDS011;590;48.772;8.846;2022-07-03T00:13:03;2.90;;;2.70;;
253;SDS011;590;48.772;8.846;2022-07-03T00:15:31;3.00;;;2.80;;
253;SDS011;590;48.772;8.846;2022-07-03T00:17:59;3.53;;;3.20;;
253;SDS011;590;48.772;8.846;2022-07-03T00:20:28;6.17;;;4.00;;
253;SDS011;590;48.772;8.846;2022-07-03T00:23:00;2.40;;;2.30;;
253;SDS011;590;48.772;8.846;2022-07-03T00:25:34;5.97;;;3.13;;
253;SDS011;590;48.772;8.846;2022-07-03T00:28:04;3.53;;;3.30;;
253;SDS011;590;48.772;8.846;2022-07-03T00:30:34;3.70;;;3.50;;
253;SDS011;590;48.772;8.846;2022-07-03T00:33:03;3.37;;;3.17;;
253;SDS011;590;48.772;8.846;2022-07-03T00:35:34;4.87;;;2.90;;
253;SDS011;590;48.772;8.846;2022-07-03T00:38:03;4.43;;;3.43;;
253;SDS011;590;48.772;8.846;2022-07-03T00:40:31;3.20;;;3.00;;
253;SDS011;590;48.772;8.846;2022-07-03T00:43:00;3.03;;;2.83;;
253;SDS011;590;48.772;8.846;2022-07-03T00:45:32;3.07;;;2.87;;
253;SDS011;590;48.772;8.846;2022-07-03T00:48:02;4.30;;;2.77;;
253;SDS011;590;48.772;8.846;2022-07-03T00:50:34;5.13;;;2.90;;
253;SDS011;590;48.772;8.846;2022-07-03T00:53:03;3.27;;;3.10;;
253;SDS011;590;48.772;8.846;2022-07-03T00:55:31;3.27;;;3.07;;
253;SDS011;590;48.772;8.846;2022-07-03T00:58:02;3.20;;;3.00;;
253;SDS011;590;48.772;8.846;2022-07-03T01:00:32;3.23;;;3.03;;
253;SDS011;590;48.772;8.846;2022-07-03T01:03:06;3.23;;;3.03;;
253;SDS011;590;48.772;8.846;2022-07-03T01:05:42;3.50;;;3.30;;
253;SDS011;590;48.772;8.846;2022-07-03T01:08:12;4.87;;;4.57;;
253;SDS011;590;48.772;8.846;2022-07-03T01:10:52;3.67;;;3.47;;
253;SDS011;590;48.772;8.846;2022-07-03T01:13:25;3.40;;;3.20;;
253;SDS011;590;48.772;8.846;2022-07-03T01:16:06;4.13;;;3.27;;
253;SDS011;590;48.772;8.846;2022-07-03T01:18:43;3.60;;;3.40;;
253;SDS011;590;48.772;8.846;2022-07-03T01:21:34;4.03;;;3.53;;
253;SDS011;590;48.772;8.846;2022-07-03T01:24:16;2.97;;;2.77;;
253;SDS011;590;48.772;8.846;2022-07-03T01:26:59;3.37;;;2.80;;
253;SDS011;590;48.772;8.846;2022-07-03T01:29:38;3.40;;;3.20;;
253;SDS011;590;48.772;8.846;2022-07-03T01:32:19;3.50;;;2.50;;
253;SDS011;590;48.772;8.846;2022-07-03T01:34:51;3.43;;;3.23;;
253;SDS011;590;48.772;8.846;2022-07-03T01:37:22;2.90;;;2.70;;
253;SDS011;590;48.772;8.846;2022-07-03T01:39:54;3.13;;;3.00;;
253;SDS011;590;48.772;8.846;2022-07-03T01:42:26;4.53;;;2.73;;
253;SDS011;590;48.772;8.846;2022-07-03T01:44:56;4.50;;;3.07;;
253;SDS011;590;48.772;8.846;2022-07-03T01:47:26;3.53;;;3.33;;
253;SDS011;590;48.772;8.846;2022-07-03T01:49:56;3.23;;;3.03;;
253;SDS011;590;48.772;8.846;2022-07-03T01:52:27;3.40;;;3.20;;
253;SDS011;590;48.772;8.846;2022-07-03T01:55:13;3.23;;;3.03;;
253;SDS011;590;48.772;8.846;2022-07-03T01:57:43;3.20;;;3.00;;
253;SDS011;590;48.772;8.846;2022-07-03T02:00:14;3.20;;;3.03;;
253;SDS011;590;48.772;8.846;2022-07-03T02:02:45;3.30;;;3.10;;
253;SDS011;590;48.772;8.846;2022-07-03T02:05:34;3.03;;;2.83;;
253;SDS011;590;48.772;8.846;2022-07-03T02:08:07;3.37;;;3.10;;
253;SDS011;590;48.772;8.846;2022-07-03T02:10:43;3.33;;;3.13;;
253;SDS011;590;48.772;8.846;2022-07-03T02:13:22;5.03;;;2.87;;
253;SDS011;590;48.772;8.846;2022-07-03T02:15:51;3.47;;;3.10;;
253;SDS011;590;48.772;8.846;2022-07-03T02:18:24;4.03;;;3.83;;
253;SDS011;590;48.772;8.846;2022-07-03T02:20:56;5.20;;;4.90;;
253;SDS011;590;48.772;8.846;2022-07-03T02:23:36;3.73;;;3.53;;
253;SDS011;590;48.772;8.846;2022-07-03T02:26:10;3.50;;;3.30;;
253;SDS011;590;48.772;8.846;2022-07-03T02:28:54;2.93;;;2.73;;
253;SDS011;590;48.772;8.846;2022-07-03T02:31:27;3.80;;;3.20;;
253;SDS011;590;48.772;8.846;2022-07-03T02:34:00;3.30;;;3.10;;
253;SDS011;590;48.772;8.846;2022-07-03T02:36:31;5.67;;;3.00;;
253;SDS011;590;48.772;8.846;2022-07-03T02:39:01;3.90;;;2.87;;
253;SDS011;590;48.772;8.846;2022-07-03T02:41:37;2.83;;;2.63;;
253;SDS011;590;48.772;8.846;2022-07-03T02:44:16;3.20;;;2.87;;
253;SDS011;590;48.772;8.846;2022-07-03T02:46:54;3.47;;;3.27;;
253;SDS011;590;48.772;8.846;2022-07-03T02:49:33;3.23;;;3.03;;
253;SDS011;590;48.772;8.846;2022-07-03T02:52:13;3.10;;;2.90;;
253;SDS011;590;48.772;8.846;2022-07-03T02:54:49;3.13;;;2.93;;
253;SDS011;590;48.772;8.846;2022-07-03T02:57:19;3.40;;;3.20;;
253;SDS011;590;48.772;8.846;2022-07-03T02:59:54;3.50;;;3.30;;
253;SDS011;590;48.772;8.846;2022-07-03T03:02:25;3.23;;;3.03;;
253;SDS011;590;48.772;8.846;2022-07-03T03:05:06;2.70;;;2.50;;
253;SDS011;590;48.772;8.846;2022-07-03T03:07:42;3.13;;;2.87;;
253;SDS011;590;48.772;8.846;2022-07-03T03:10:19;3.10;;;2.90;;
253;SDS011;590;48.772;8.846;2022-07-03T03:12:51;2.50;;;2.30;;
253;SDS011;590;48.772;8.846;2022-07-03T03:15:26;3.93;;;3.13;;
253;SDS011;590;48.772;8.846;2022-07-03T03:18:00;3.40;;;3.20;;
253;SDS011;590;48.772;8.846;2022-07-03T03:20:31;4.50;;;2.90;;
253;SDS011;590;48.772;8.846;2022-07-03T03:23:12;3.10;;;2.37;;
253;SDS011;590;48.772;8.846;2022-07-03T03:25:46;2.90;;;2.70;;
253;SDS011;590;48.772;8.846;2022-07-03T03:28:14;3.10;;;2.90;;
253;SDS011;590;48.772;8.846;2022-07-03T03:30:44;2.40;;;2.20;;
253;SDS011;590;48.772;8.846;2022-07-03T03:33:12;2.40;;;2.20;;
253;SDS011;590;48.772;8.846;2022-07-03T03:35:40;3.07;;;2.87;;
253;SDS011;590;48.772;8.846;2022-07-03T03:38:08;2.80;;;2.60;;
253;SDS011;590;48.772;8.846;2022-07-03T03:40:36;3.43;;;3.10;;
253;SDS011;590;48.772;8.846;2022-07-03T03:43:04;3.80;;;2.93;;
253;SDS011;590;48.772;8.846;2022-07-03T03:45:32;3.80;;;2.80;;
253;SDS011;590;48.772;8.846;2022-07-03T03:48:02;2.90;;;2.70;;
253;SDS011;590;48.772;8.846;2022-07-03T03:50:30;3.10;;;2.90;;
253;SDS011;590;48.772;8.846;2022-07-03T03:52:58;2.80;;;2.60;;
253;SDS011;590;48.772;8.846;2022-07-03T03:55:27;3.27;;;3.10;;
253;SDS011;590;48.772;8.846;2022-07-03T03:57:55;2.60;;;2.40;;
253;SDS011;590;48.772;8.846;2022-07-03T04:00:23;2.93;;;2.73;;
253;SDS011;590;48.772;8.846;2022-07-03T04:02:51;2.83;;;2.70;;
253;SDS011;590;48.772;8.846;2022-07-03T04:05:20;3.00;;;2.80;;
253;SDS011;590;48.772;8.846;2022-07-03T04:07:48;3.70;;;2.40;;
253;SDS011;590;48.772;8.846;2022-07-03T04:10:16;2.57;;;2.37;;
253;SDS011;590;48.772;8.846;2022-07-03T04:12:44;3.30;;;2.97;;
253;SDS011;590;48.772;8.846;2022-07-03T04:15:12;3.23;;;3.03;;
253;SDS011;590;48.772;8.846;2022-07-03T04:17:40;2.90;;;2.70;;
253;SDS011;590;48.772;8.846;2022-07-03T04:20:10;3.00;;;2.80;;
253;SDS011;590;48.772;8.846;2022-07-03T04:22:39;2.30;;;2.10;;
253;SDS011;590;48.772;8.846;2022-07-03T04:25:08;2.40;;;2.30;;
253;SDS011;590;48.772;8.846;2022-07-03T04:27:36;5.13;;;2.40;;
253;SDS011;590;48.772;8.846;2022-07-03T04:30:24;2.20;;;2.10;;
253;SDS011;590;48.772;8.846;2022-07-03T04:32:52;3.97;;;2.47;;
253;SDS011;590;48.772;8.846;2022-07-03T04:35:20;1.67;;;1.57;;
253;SDS011;590;48.772;8.846;2022-07-03T04:37:50;3.60;;;2.27;;
253;SDS011;590;48.772;8.846;2022-07-03T04:40:18;1.70;;;1.60;;
253;SDS011;590;48.772;8.846;2022-07-03T04:42:46;2.07;;;1.97;;
253;SDS011;590;48.772;8.846;2022-07-03T04:45:14;2.63;;;2.13;;
253;SDS011;590;48.772;8.846;2022-07-03T04:47:42;2.17;;;2.00;;
253;SDS011;590;48.772;8.846;2022-07-03T04:50:10;1.77;;;1.77;;
253;SDS011;590;48.772;8.846;2022-07-03T04:52:38;1.97;;;1.83;;
253;SDS011;590;48.772;8.846;2022-07-03T04:55:07;2.20;;;2.00;;
253;SDS011;590;48.772;8.846;2022-07-03T04:57:36;2.97;;;2.10;;
253;SDS011;590;48.772;8.846;2022-07-03T05:00:05;2.23;;;2.00;;
253;SDS011;590;48.772;8.846;2022-07-03T05:02:34;1.77;;;1.70;;
253;SDS011;590;48.772;8.846;2022-07-03T05:05:05;2.10;;;1.70;;
253;SDS011;590;48.772;8.846;2022-07-03T05:07:35;1.57;;;1.47;;
253;SDS011;590;48.772;8.846;2022-07-03T05:10:03;1.80;;;1.70;;
253;SDS011;590;48.772;8.846;2022-07-03T05:12:39;1.83;;;1.80;;
253;SDS011;590;48.772;8.846;2022-07-03T05:15:07;1.70;;;1.60;;
253;SDS011;590;48.772;8.846;2022-07-03T05:17:45;1.60;;;1.50;;
253;SDS011;590;48.772;8.846;2022-07-03T05:20:13;2.10;;;1.97;;
253;SDS011;590;48.772;8.846;2022-07-03T05:23:10;2.23;;;2.07;;
253;SDS011;590;48.772;8.846;2022-07-03T05:25:38;2.00;;;1.90;;
253;SDS011;590;48.772;8.846;2022-07-03T05:28:17;2.00;;;1.90;;
253;SDS011;590;48.772;8.846;2022-07-03T05:30:45;2.33;;;2.13;;
253;SDS011;590;48.772;8.846;2022-07-03T05:33:14;2.20;;;1.97;;
253;SDS011;590;48.772;8.846;2022-07-03T05:35:44;2.50;;;2.30;;
253;SDS011;590;48.772;8.846;2022-07-03T05:38:20;2.60;;;2.40;;
253;SDS011;590;48.772;8.846;2022-07-03T05:41:02;2.37;;;2.20;;
253;SDS011;590;48.772;8.846;2022-07-03T05:43:31;2.60;;;2.40;;
253;SDS011;590;48.772;8.846;2022-07-03T05:45:59;2.27;;;2.07;;
253;SDS011;590;48.772;8.846;2022-07-03T05:48:28;1.87;;;1.80;;
253;SDS011;590;48.772;8.846;2022-07-03T05:50:56;1.87;;;1.77;;
253;SDS011;590;48.772;8.846;2022-07-03T05:53:26;2.17;;;2.00;;
253;SDS011;590;48.772;8.846;2022-07-03T05:56:14;2.20;;;2.00;;
253;SDS011;590;48.772;8.846;2022-07-03T05:58:46;2.83;;;2.63;;
253;SDS011;590;48.772;8.846;2022-07-03T06:01:16;2.33;;;2.13;;
253;SDS011;590;48.772;8.846;2022-07-03T06:03:48;2.50;;;2.30;;
253;SDS011;590;48.772;8.846;2022-07-03T06:06:20;3.10;;;2.30;;
253;SDS011;590;48.772;8.846;2022-07-03T06:08:48;2.80;;;2.40;;
253;SDS011;590;48.772;8.846;2022-07-03T06:11:18;2.50;;;2.30;;
253;SDS011;590;48.772;8.846;2022-07-03T06:13:47;2.20;;;2.00;;
253;SDS011;590;48.772;8.846;2022-07-03T06:16:18;2.97;;;2.10;;
253;SDS011;590;48.772;8.846;2022-07-03T06:18:46;2.20;;;2.00;;
253;SDS011;590;48.772;8.846;2022-07-03T06:21:15;1.70;;;1.60;;
253;SDS011;590;48.772;8.846;2022-07-03T06:23:46;1.73;;;1.60;;
253;SDS011;590;48.772;8.846;2022-07-03T06:26:14;1.57;;;1.47;;
253;SDS011;590;48.772;8.846;2022-07-03T06:28:45;1.50;;;1.33;;
253;SDS011;590;48.772;8.846;2022-07-03T06:31:16;1.57;;;1.50;;
253;SDS011;590;48.772;8.846;2022-07-03T06:33:44;1.57;;;1.47;;
253;SDS011;590;48.772;8.846;2022-07-03T06:36:15;1.43;;;1.30;;
253;SDS011;590;48.772;8.846;2022-07-03T06:38:43;1.53;;;1.43;;
253;SDS011;590;48.772;8.846;2022-07-03T06:41:11;2.83;;;1.40;;
253;SDS011;590;48.772;8.846;2022-07-03T06:43:39;1.30;;;1.20;;
253;SDS011;590;48.772;8.846;2022-07-03T06:46:08;1.40;;;1.30;;
253;SDS011;590;48.772;8.846;2022-07-03T06:48:37;1.13;;;1.03;;
253;SDS011;590;48.772;8.846;2022-07-03T06:51:05;1.43;;;1.00;;
253;SDS011;590;48.772;8.846;2022-07-03T06:53:34;1.90;;;1.37;;
253;SDS011;590;48.772;8.846;2022-07-03T06:56:02;1.20;;;1.10;;
253;SDS011;590;48.772;8.846;2022-07-03T06:58:30;1.10;;;1.00;;
253;SDS011;590;48.772;8.846;2022-07-03T07:00:58;1.00;;;0.90;;
253;SDS011;590;48.772;8.846;2022-07-03T07:03:26;1.30;;;1.30;;
253;SDS011;590;48.772;8.846;2022-07-03T07:05:55;1.10;;;1.00;;
253;SDS011;590;48.772;8.846;2022-07-03T07:08:23;1.07;;;0.97;;
253;SDS011;590;48.772;8.846;2022-07-03T07:10:51;1.23;;;1.00;;
253;SDS011;590;48.772;8.846;2022-07-03T07:13:19;1.23;;;1.13;;
253;SDS011;590;48.772;8.846;2022-07-03T07:15:50;1.17;;;1.07;;
253;SDS011;590;48.772;8.846;2022-07-03T07:18:18;1.00;;;0.90;;
253;SDS011;590;48.772;8.846;2022-07-03T07:20:46;1.37;;;0.90;;
253;SDS011;590;48.772;8.846;2022-07-03T07:23:16;1.40;;;1.30;;
253;SDS011;590;48.772;8.846;2022-07-03T07:25:44;1.10;;;1.07;;
253;SDS011;590;48.772;8.846;2022-07-03T07:28:12;1.33;;;1.23;;
253;SDS011;590;48.772;8.846;2022-07-03T07:30:39;1.03;;;0.93;;
253;SDS011;590;48.772;8.846;2022-07-03T07:33:08;1.07;;;0.97;;
253;SDS011;590;48.772;8.846;2022-07-03T07:35:36;1.30;;;0.83;;
253;SDS011;590;48.772;8.846;2022-07-03T07:38:04;2.30;;;0.97;;
253;SDS011;590;48.772;8.846;2022-07-03T07:40:36;1.10;;;1.00;;
253;SDS011;590;48.772;8.846;2022-07-03T07:43:04;1.20;;;1.10;;
253;SDS011;590;48.772;8.846;2022-07-03T07:45:32;1.30;;;1.20;;
253;SDS011;590;48.772;8.846;2022-07-03T07:48:01;1.10;;;1.00;;
253;SDS011;590;48.772;8.846;2022-07-03T07:50:29;1.80;;;0.90;;
253;SDS011;590;48.772;8.846;2022-07-03T07:52:57;1.00;;;0.90;;
253;SDS011;590;48.772;8.846;2022-07-03T07:55:25;1.03;;;0.90;;
253;SDS011;590;48.772;8.846;2022-07-03T07:57:54;1.33;;;1.00;;
253;SDS011;590;48.772;8.846;2022-07-03T08:00:22;1.03;;;1.03;;
253;SDS011;590;48.772;8.846;2022-07-03T08:02:50;1.23;;;1.13;;
253;SDS011;590;48.772;8.846;2022-07-03T08:05:36;1.00;;;0.90;;
253;SDS011;590;48.772;8.846;2022-07-03T08:08:05;1.43;;;0.90;;
253;SDS011;590;48.772;8.846;2022-07-03T08:10:36;0.60;;;0.60;;
253;SDS011;590;48.772;8.846;2022-07-03T08:13:09;1.17;;;0.97;;
253;SDS011;590;48.772;8.846;2022-07-03T08:15:39;0.70;;;0.70;;
253;SDS011;590;48.772;8.846;2022-07-03T08:18:08;1.20;;;1.10;;
253;SDS011;590;48.772;8.846;2022-07-03T08:20:37;3.13;;;1.20;;
253;SDS011;590;48.772;8.846;2022-07-03T08:23:10;1.17;;;0.70;;
253;SDS011;590;48.772;8.846;2022-07-03T08:25:38;1.33;;;1.23;;
253;SDS011;590;48.772;8.846;2022-07-03T08:28:06;1.00;;;0.87;;
253;SDS011;590;48.772;8.846;2022-07-03T08:30:36;0.93;;;0.90;;
253;SDS011;590;48.772;8.846;2022-07-03T08:33:04;0.83;;;0.73;;
253;SDS011;590;48.772;8.846;2022-07-03T08:35:32;1.57;;;1.03;;
253;SDS011;590;48.772;8.846;2022-07-03T08:38:00;1.00;;;0.90;;
253;SDS011;590;48.772;8.846;2022-07-03T08:40:28;1.17;;;1.10;;
253;SDS011;590;48.772;8.846;2022-07-03T08:43:00;3.70;;;1.27;;
253;SDS011;590;48.772;8.846;2022-07-03T08:45:31;0.80;;;0.70;;
253;SDS011;590;48.772;8.846;2022-07-03T08:48:01;1.17;;;1.00;;
253;SDS011;590;48.772;8.846;2022-07-03T08:50:31;1.37;;;0.90;;
253;SDS011;590;48.772;8.846;2022-07-03T08:53:00;0.90;;;0.80;;
253;SDS011;590;48.772;8.846;2022-07-03T08:55:33;0.90;;;0.80;;
253;SDS011;590;48.772;8.846;2022-07-03T08:58:02;1.13;;;1.10;;
253;SDS011;590;48.772;8.846;2022-07-03T09:00:33;2.97;;;0.90;;
253;SDS011;590;48.772;8.846;2022-07-03T09:03:02;1.00;;;0.90;;
253;SDS011;590;48.772;8.846;2022-07-03T09:05:31;1.07;;;0.70;;
253;SDS011;590;48.772;8.846;2022-07-03T09:08:02;1.13;;;0.90;;
253;SDS011;590;48.772;8.846;2022-07-03T09:10:30;1.37;;;1.03;;
253;SDS011;590;48.772;8.846;2022-07-03T09:12:58;1.43;;;0.97;;
253;SDS011;590;48.772;8.846;2022-07-03T09:15:26;2.50;;;1.00;;
253;SDS011;590;48.772;8.846;2022-07-03T09:17:57;0.93;;;0.83;;
253;SDS011;590;48.772;8.846;2022-07-03T09:20:30;1.00;;;0.90;;
253;SDS011;590;48.772;8.846;2022-07-03T09:23:12;3.33;;;1.10;;
253;SDS011;590;48.772;8.846;2022-07-03T09:25:51;0.80;;;0.70;;
253;SDS011;590;48.772;8.846;2022-07-03T09:28:20;1.07;;;0.90;;
253;SDS011;590;48.772;8.846;2022-07-03T09:30:56;0.80;;;0.80;;
253;SDS011;590;48.772;8.846;2022-07-03T09:33:30;1.83;;;1.20;;
253;SDS011;590;48.772;8.846;2022-07-03T09:35:58;1.03;;;0.87;;
253;SDS011;590;48.772;8.846;2022-07-03T09:38:26;1.47;;;1.07;;
253;SDS011;590;48.772;8.846;2022-07-03T09:40:55;2.20;;;0.70;;
253;SDS011;590;48.772;8.846;2022-07-03T09:43:30;1.10;;;1.00;;
253;SDS011;590;48.772;8.846;2022-07-03T09:45:58;1.27;;;1.13;;
253;SDS011;590;48.772;8.846;2022-07-03T09:48:30;2.40;;;1.10;;
253;SDS011;590;48.772;8.846;2022-07-03T09:51:12;1.13;;;1.03;;
253;SDS011;590;48.772;8.846;2022-07-03T09:53:55;0.83;;;0.73;;
253;SDS011;590;48.772;8.846;2022-07-03T09:56:25;1.07;;;0.97;;
253;SDS011;590;48.772;8.846;2022-07-03T09:59:01;1.10;;;1.00;;
253;SDS011;590;48.772;8.846;2022-07-03T10:01:31;1.17;;;0.90;;
253;SDS011;590;48.772;8.846;2022-07-03T10:04:11;0.97;;;0.90;;
253;SDS011;590;48.772;8.846;2022-07-03T10:06:51;1.47;;;0.70;;
253;SDS011;590;48.772;8.846;2022-07-03T10:09:22;1.10;;;1.00;;
253;SDS011;590;48.772;8.846;2022-07-03T10:11:51;1.40;;;0.80;;
253;SDS011;590;48.772;8.846;2022-07-03T10:14:20;1.47;;;0.93;;
253;SDS011;590;48.772;8.846;2022-07-03T10:16:49;1.00;;;0.90;;
253;SDS011;590;48.772;8.846;2022-07-03T10:19:23;1.10;;;1.00;;
253;SDS011;590;48.772;8.846;2022-07-03T10:21:53;1.27;;;1.17;;
253;SDS011;590;48.772;8.846;2022-07-03T10:24:23;1.23;;;0.80;;
253;SDS011;590;48.772;8.846;2022-07-03T10:26:52;0.93;;;0.93;;
253;SDS011;590;48.772;8.846;2022-07-03T10:29:22;0.90;;;0.80;;
253;SDS011;590;48.772;8.846;2022-07-03T10:31:55;1.20;;;0.70;;
253;SDS011;590;48.772;8.846;2022-07-03T10:34:26;1.63;;;0.90;;
253;SDS011;590;48.772;8.846;2022-07-03T10:36:57;1.77;;;0.70;;
253;SDS011;590;48.772;8.846;2022-07-03T10:39:32;1.30;;;1.00;;
253;SDS011;590;48.772;8.846;2022-07-03T10:42:05;0.87;;;0.77;;
253;SDS011;590;48.772;8.846;2022-07-03T10:45:06;0.70;;;0.70;;
253;SDS011;590;48.772;8.846;2022-07-03T10:47:44;1.00;;;0.90;;
253;SDS011;590;48.772;8.846;2022-07-03T10:50:15;0.97;;;0.87;;
253;SDS011;590;48.772;8.846;2022-07-03T10:52:44;1.00;;;0.73;;
253;SDS011;590;48.772;8.846;2022-07-03T10:55:13;2.90;;;1.13;;
253;SDS011;590;48.772;8.846;2022-07-03T10:57:42;1.17;;;1.10;;
253;SDS011;590;48.772;8.846;2022-07-03T11:00:30;1.00;;;0.90;;
253;SDS011;590;48.772;8.846;2022-07-03T11:06:21;1.03;;;0.97;;
253;SDS011;590;48.772;8.846;2022-07-03T11:09:04;2.30;;;1.03;;
253;SDS011;590;48.772;8.846;2022-07-03T11:11:33;0.90;;;0.80;;
253;SDS011;590;48.772;8.846;2022-07-03T11:14:19;1.23;;;0.90;;
253;SDS011;590;48.772;8.846;2022-07-03T11:16:47;0.93;;;0.87;;
253;SDS011;590;48.772;8.846;2022-07-03T11:19:15;1.00;;;1.00;;
253;SDS011;590;48.772;8.846;2022-07-03T11:21:55;1.30;;;1.20;;
253;SDS011;590;48.772;8.846;2022-07-03T11:24:37;1.10;;;1.07;;
253;SDS011;590;48.772;8.846;2022-07-03T11:27:18;1.77;;;1.13;;
253;SDS011;590;48.772;8.846;2022-07-03T11:29:57;1.07;;;1.00;;
253;SDS011;590;48.772;8.846;2022-07-03T11:38:15;1.37;;;1.30;;
253;SDS011;590;48.772;8.846;2022-07-03T11:40:45;1.00;;;0.90;;
253;SDS011;590;48.772;8.846;2022-07-03T11:43:15;0.93;;;0.90;;
253;SDS011;590;48.772;8.846;2022-07-03T11:45:43;1.30;;;1.20;;
253;SDS011;590;48.772;8.846;2022-07-03T11:48:14;0.97;;;0.87;;
253;SDS011;590;48.772;8.846;2022-07-03T11:50:45;1.50;;;1.50;;
253;SDS011;590;48.772;8.846;2022-07-03T11:53:16;1.00;;;0.90;;
253;SDS011;590;48.772;8.846;2022-07-03T11:55:50;1.33;;;1.23;;
253;SDS011;590;48.772;8.846;2022-07-03T11:58:20;1.73;;;1.17;;
253;SDS011;590;48.772;8.846;2022-07-03T12:00:48;1.23;;;1.13;;
253;SDS011;590;48.772;8.846;2022-07-03T12:03:21;0.90;;;0.90;;
253;SDS011;590;48.772;8.846;2022-07-03T12:05:55;1.10;;;1.00;;
253;SDS011;590;48.772;8.846;2022-07-03T12:08:26;1.20;;;1.10;;
253;SDS011;590;48.772;8.846;2022-07-03T12:10:57;1.00;;;0.80;;
253;SDS011;590;48.772;8.846;2022-07-03T12:13:26;1.60;;;1.40;;
253;SDS011;590;48.772;8.846;2022-07-03T12:16:03;1.00;;;0.90;;
253;SDS011;590;48.772;8.846;2022-07-03T12:18:44;1.30;;;1.20;;
253;SDS011;590;48.772;8.846;2022-07-03T12:21:17;1.17;;;1.07;;
253;SDS011;590;48.772;8.846;2022-07-03T12:23:48;1.27;;;1.20;;
253;SDS011;590;48.772;8.846;2022-07-03T12:26:27;0.97;;;0.90;;
253;SDS011;590;48.772;8.846;2022-07-03T12:28:57;1.43;;;1.33;;
253;SDS011;590;48.772;8.846;2022-07-03T12:31:26;1.70;;;1.00;;
253;SDS011;590;48.772;8.846;2022-07-03T12:33:56;1.30;;;1.20;;
253;SDS011;590;48.772;8.846;2022-07-03T12:36:24;1.47;;;1.10;;
253;SDS011;590;48.772;8.846;2022-07-03T12:38:54;1.40;;;0.87;;
253;SDS011;590;48.772;8.846;2022-07-03T12:41:24;1.13;;;1.03;;
253;SDS011;590;48.772;8.846;2022-07-03T12:43:53;1.00;;;1.00;;
253;SDS011;590;48.772;8.846;2022-07-03T12:46:23;1.10;;;1.10;;
253;SDS011;590;48.772;8.846;2022-07-03T12:48:53;1.73;;;1.10;;
253;SDS011;590;48.772;8.846;2022-07-03T12:51:38;1.10;;;1.00;;
253;SDS011;590;48.772;8.846;2022-07-03T12:54:10;2.50;;;0.90;;
253;SDS011;590;48.772;8.846;2022-07-03T12:56:39;1.40;;;1.30;;
253;SDS011;590;48.772;8.846;2022-07-03T12:59:23;2.20;;;1.40;;
253;SDS011;590;48.772;8.846;2022-07-03T13:01:59;1.27;;;1.20;;
253;SDS011;590;48.772;8.846;2022-07-03T13:04:32;2.60;;;1.20;;
253;SDS011;590;48.772;8.846;2022-07-03T13:07:02;1.67;;;1.20;;
253;SDS011;590;48.772;8.846;2022-07-03T13:09:32;3.37;;;1.47;;
253;SDS011;590;48.772;8.846;2022-07-03T13:12:01;1.30;;;1.27;;
253;SDS011;590;48.772;8.846;2022-07-03T13:14:30;1.47;;;1.37;;
253;SDS011;590;48.772;8.846;2022-07-03T13:16:58;1.30;;;1.20;;
253;SDS011;590;48.772;8.846;2022-07-03T13:19:26;1.30;;;1.20;;
253;SDS011;590;48.772;8.846;2022-07-03T13:21:56;2.70;;;1.60;;
253;SDS011;590;48.772;8.846;2022-07-03T13:24:24;1.40;;;1.40;;
253;SDS011;590;48.772;8.846;2022-07-03T13:26:54;1.27;;;1.17;;
253;SDS011;590;48.772;8.846;2022-07-03T13:29:23;2.00;;;1.37;;
253;SDS011;590;48.772;8.846;2022-07-03T13:31:51;1.20;;;1.10;;
253;SDS011;590;48.772;8.846;2022-07-03T13:34:20;1.40;;;1.23;;
253;SDS011;590;48.772;8.846;2022-07-03T13:36:48;1.80;;;1.70;;
253;SDS011;590;48.772;8.846;2022-07-03T13:39:16;1.50;;;1.40;;
253;SDS011;590;48.772;8.846;2022-07-03T13:41:44;1.57;;;1.30;;
253;SDS011;590;48.772;8.846;2022-07-03T13:44:14;1.30;;;1.20;;
253;SDS011;590;48.772;8.846;2022-07-03T13:46:42;1.93;;;1.60;;
253;SDS011;590;48.772;8.846;2022-07-03T13:49:16;1.30;;;1.20;;
253;SDS011;590;48.772;8.846;2022-07-03T13:51:44;1.30;;;1.13;;
253;SDS011;590;48.772;8.846;2022-07-03T13:54:12;1.83;;;1.40;;
253;SDS011;590;48.772;8.846;2022-07-03T13:56:40;2.87;;;1.30;;
253;SDS011;590;48.772;8.846;2022-07-03T13:59:09;1.40;;;1.30;;
253;SDS011;590;48.772;8.846;2022-07-03T14:01:39;1.30;;;1.20;;
253;SDS011;590;48.772;8.846;2022-07-03T14:04:08;1.20;;;1.20;;
253;SDS011;590;48.772;8.846;2022-07-03T14:06:36;1.30;;;1.20;;
253;SDS011;590;48.772;8.846;2022-07-03T14:09:04;1.23;;;1.13;;
253;SDS011;590;48.772;8.846;2022-07-03T14:11:32;1.10;;;1.00;;
253;SDS011;590;48.772;8.846;2022-07-03T14:14:00;1.33;;;1.30;;
253;SDS011;590;48.772;8.846;2022-07-03T14:16:28;1.20;;;1.03;;
253;SDS011;590;48.772;8.846;2022-07-03T14:18:58;1.30;;;1.13;;
253;SDS011;590;48.772;8.846;2022-07-03T14:21:29;1.43;;;1.33;;
253;SDS011;590;48.772;8.846;2022-07-03T14:23:57;1.27;;;1.00;;
253;SDS011;590;48.772;8.846;2022-07-03T14:26:25;1.20;;;1.10;;
253;SDS011;590;48.772;8.846;2022-07-03T14:29:11;1.30;;;1.20;;
253;SDS011;590;48.772;8.846;2022-07-03T14:31:56;1.50;;;1.40;;
253;SDS011;590;48.772;8.846;2022-07-03T14:34:43;1.43;;;1.33;;
253;SDS011;590;48.772;8.846;2022-07-03T14:37:16;1.20;;;1.10;;
253;SDS011;590;48.772;8.846;2022-07-03T14:39:45;1.50;;;1.10;;
253;SDS011;590;48.772;8.846;2022-07-03T14:42:13;1.20;;;1.10;;
253;SDS011;590;48.772;8.846;2022-07-03T14:44:41;1.27;;;1.17;;
253;SDS011;590;48.772;8.846;2022-07-03T14:47:09;1.53;;;1.03;;
253;SDS011;590;48.772;8.846;2022-07-03T14:49:38;1.40;;;1.33;;
253;SDS011;590;48.772;8.846;2022-07-03T14:52:07;2.70;;;1.30;;
253;SDS011;590;48.772;8.846;2022-07-03T14:54:35;2.23;;;1.33;;
253;SDS011;590;48.772;8.846;2022-07-03T14:57:06;1.50;;;1.40;;
253;SDS011;590;48.772;8.846;2022-07-03T14:59:55;1.33;;;1.23;;
253;SDS011;590;48.772;8.846;2022-07-03T15:02:40;1.43;;;1.33;;
253;SDS011;590;48.772;8.846;2022-07-03T15:05:11;1.33;;;1.23;;
253;SDS011;590;48.772;8.846;2022-07-03T15:07:42;1.50;;;1.13;;
253;SDS011;590;48.772;8.846;2022-07-03T15:10:12;1.33;;;1.10;;
253;SDS011;590;48.772;8.846;2022-07-03T15:12:42;1.37;;;1.27;;
253;SDS011;590;48.772;8.846;2022-07-03T15:15:13;1.23;;;1.20;;
253;SDS011;590;48.772;8.846;2022-07-03T15:17:42;1.20;;;1.10;;
253;SDS011;590;48.772;8.846;2022-07-03T15:20:11;1.50;;;1.40;;
253;SDS011;590;48.772;8.846;2022-07-03T15:22:43;2.37;;;1.13;;
253;SDS011;590;48.772;8.846;2022-07-03T15:25:15;1.23;;;1.13;;
253;SDS011;590;48.772;8.846;2022-07-03T15:27:45;1.40;;;1.30;;
253;SDS011;590;48.772;8.846;2022-07-03T15:30:16;3.20;;;1.70;;
253;SDS011;590;48.772;8.846;2022-07-03T15:32:45;1.30;;;1.20;;
253;SDS011;590;48.772;8.846;2022-07-03T15:35:14;1.63;;;1.10;;
253;SDS011;590;48.772;8.846;2022-07-03T15:37:49;1.50;;;1.40;;
253;SDS011;590;48.772;8.846;2022-07-03T15:40:32;1.40;;;1.30;;
253;SDS011;590;48.772;8.846;2022-07-03T15:43:06;2.40;;;1.10;;
253;SDS011;590;48.772;8.846;2022-07-03T15:45:48;1.40;;;1.30;;
253;SDS011;590;48.772;8.846;2022-07-03T15:48:25;2.20;;;1.20;;
253;SDS011;590;48.772;8.846;2022-07-03T15:50:59;1.27;;;1.17;;
253;SDS011;590;48.772;8.846;2022-07-03T15:53:39;5.50;;;1.30;;
253;SDS011;590;48.772;8.846;2022-07-03T15:56:08;2.23;;;1.30;;
253;SDS011;590;48.772;8.846;2022-07-03T15:58:44;3.03;;;0.90;;
253;SDS011;590;48.772;8.846;2022-07-03T16:01:17;1.17;;;1.07;;
253;SDS011;590;48.772;8.846;2022-07-03T16:04:06;1.60;;;1.50;;
253;SDS011;590;48.772;8.846;2022-07-03T16:06:37;1.67;;;1.30;;
253;SDS011;590;48.772;8.846;2022-07-03T16:09:09;1.83;;;1.40;;
253;SDS011;590;48.772;8.846;2022-07-03T16:11:37;1.50;;;1.40;;
253;SDS011;590;48.772;8.846;2022-07-03T16:14:05;1.47;;;1.37;;
253;SDS011;590;48.772;8.846;2022-07-03T16:16:34;1.40;;;1.30;;
253;SDS011;590;48.772;8.846;2022-07-03T16:19:02;1.80;;;1.33;;
253;SDS011;590;48.772;8.846;2022-07-03T16:21:32;1.37;;;1.27;;